Date,TemperatureHighF,TemperatureAvgF,TemperatureLowF,DewpointHighF,DewpointAvgF,DewpointLowF,HumidityHigh,HumidityAvg,HumidityLow,PressureMaxIn,PressureMinIn,WindSpeedMaxMPH,WindSpeedAvgMPH,GustSpeedMaxMPH,PrecipitationSumIn
2013-1-1,69,66,63,69,65,63,100,99,97,0.00,40.00,10,5,25,0.31
2013-1-2,70,66,63,68,66,63,100,99,91,0.00,40.00,9,5,22,0.44
2013-1-3,70,66,64,69,65,63,100,99,96,0.00,40.00,10,6,26,1.06
2013-1-4,68,66,64,66,64,62,100,95,88,0.00,40.00,10,7,33,2.16
2013-1-5,69,66,65,68,65,63,99,95,89,0.00,40.00,21,12,52,2.95
2013-1-6,71,67,66,66,64,61,95,89,79,0.00,40.00,22,10,49,0.31
2013-1-7,72,68,65,68,65,61,99,90,73,0.00,40.00,15,8,39,0.50
2013-1-8,72,67,65,67,65,62,100,93,81,0.00,40.00,13,5,30,0.25
2013-1-9,75,68,64,67,66,64,100,92,73,0.00,40.00,12,6,31,0.19
2013-1-10,77,70,65,65,63,60,94,80,65,0.00,40.00,9,6,28,0.04
2013-1-11,76,69,63,66,63,61,100,84,62,0.00,40.00,9,5,20,0.11
2013-1-12,77,69,64,71,66,64,100,92,67,0.00,40.00,8,3,18,0.01
2013-1-13,79,70,64,69,66,63,100,88,62,0.00,40.00,8,4,17,0.01
2013-1-14,70,67,61,70,67,61,100,99,89,0.00,40.00,10,6,27,1.05
2013-1-15,78,65,56,65,61,56,100,87,60,0.00,40.00,8,4,15,0.05
2013-1-16,76,64,54,66,58,52,100,83,54,0.00,40.00,8,5,17,0.00
2013-1-17,74,64,56,62,58,55,100,84,56,0.00,40.00,8,5,18,0.00
2013-1-18,76,64,56,65,59,55,100,86,55,0.00,40.00,9,5,20,0.00
2013-1-19,73,64,55,59,55,52,99,72,51,0.00,40.00,10,6,27,0.00
2013-1-20,72,64,57,57,55,53,100,75,54,0.00,40.00,11,6,25,0.00
2013-1-21,72,67,61,62,59,55,86,76,62,0.00,40.00,9,7,28,0.00
2013-1-22,76,68,65,63,60,57,84,76,59,0.00,40.00,8,4,23,0.00
2013-1-23,76,66,63,68,63,57,100,89,76,0.00,40.00,10,4,22,0.05
2013-1-24,72,66,60,69,65,60,100,96,84,0.00,40.00,9,4,19,0.34
2013-1-25,83,67,59,69,64,59,100,90,52,0.00,40.00,5,3,12,0.02
2013-1-26,79,66,59,67,63,59,100,92,60,0.00,40.00,9,5,24,0.01
2013-1-27,72,67,61,69,66,61,100,97,86,0.00,40.00,11,7,31,6.32
2013-1-28,70,65,60,69,64,60,100,98,85,0.00,40.00,7,3,14,4.60
2013-1-29,79,66,59,69,63,59,100,92,66,0.00,40.00,7,4,15,0.17
2013-1-30,78,66,58,68,63,58,100,93,63,0.00,40.00,5,4,14,0.58
2013-1-31,76,69,63,67,64,62,100,86,69,0.00,40.00,10,6,24,0.02
2013-2-1,77,68,62,63,59,52,91,73,50,0.00,40.00,13,6,35,0.01
2013-2-2,75,68,63,62,60,58,85,75,62,0.00,40.00,13,9,29,0.00
2013-2-3,74,66,60,60,58,56,96,76,57,0.00,40.00,12,6,24,0.00
2013-2-4,69,67,64,64,60,54,93,78,69,0.00,40.00,12,7,28,0.08
2013-2-5,72,66,62,63,59,57,100,80,61,0.00,40.00,11,5,30,0.17
2013-2-6,74,66,61,67,64,60,100,93,73,0.00,40.00,9,6,27,0.25
2013-2-7,75,67,62,68,65,62,100,92,76,0.00,40.00,10,4,23,0.07
2013-2-8,78,69,60,65,63,60,100,83,57,0.00,40.00,7,4,17,0.01
2013-2-9,76,67,59,65,61,59,100,82,59,0.00,40.00,10,6,24,0.01
2013-2-10,70,67,65,67,63,59,100,88,80,0.00,40.00,11,6,27,0.29
2013-2-11,69,66,62,68,64,61,100,95,88,0.00,40.00,12,5,28,0.36
2013-2-12,70,64,59,63,59,54,97,84,67,0.00,40.00,7,4,20,0.05
2013-2-13,73,65,59,60,56,53,97,74,55,0.00,40.00,9,5,20,0.01
2013-2-14,74,65,58,60,58,54,92,77,60,0.00,40.00,8,4,18,0.00
2013-2-15,76,68,63,65,60,56,99,78,59,0.00,40.00,13,8,28,0.67
2013-2-16,74,67,63,64,60,56,100,80,59,0.00,40.00,12,8,33,1.82
2013-2-17,72,67,62,61,58,56,91,74,63,0.00,40.00,12,8,35,0.05
2013-2-18,70,66,63,61,58,54,86,77,65,0.00,40.00,22,12,49,0.39
2013-2-19,70,65,62,62,60,56,97,83,66,0.00,40.00,13,9,34,0.99
2013-2-20,70,65,62,65,62,58,98,88,70,0.00,40.00,15,10,41,4.66
2013-2-21,67,65,62,66,63,58,100,95,79,0.00,40.00,14,7,31,3.55
2013-2-22,68,65,62,66,64,62,100,97,89,0.00,40.00,11,6,26,3.94
2013-2-23,70,65,63,66,64,62,100,95,83,0.00,40.00,15,7,39,1.44
2013-2-24,72,66,63,66,61,58,96,82,73,0.00,40.00,11,7,26,0.89
2013-2-25,73,67,64,64,60,57,97,80,66,0.00,40.00,11,8,30,0.11
2013-2-26,70,66,63,64,61,58,100,86,72,0.00,40.00,9,7,25,0.85
2013-2-27,75,68,62,63,59,53,96,74,53,0.00,40.00,16,7,34,0.76
2013-2-28,76,67,64,60,58,56,84,72,53,0.00,40.00,10,8,29,0.01
2013-3-1,70,66,64,61,58,55,85,73,64,0.00,40.00,13,9,31,0.01
2013-3-2,75,67,63,59,57,53,81,69,52,0.00,40.00,18,8,37,0.01
2013-3-3,74,66,61,57,54,49,77,65,51,0.00,40.00,12,7,30,0.01
2013-3-4,72,66,62,58,55,52,77,69,59,0.00,40.00,8,6,28,0.00
2013-3-5,74,67,59,60,56,52,84,69,50,0.00,40.00,11,6,28,0.00
2013-3-6,76,67,60,62,61,59,98,81,58,0.00,40.00,11,6,25,0.00
2013-3-7,77,67,60,64,61,57,100,83,54,0.00,40.00,7,4,14,0.00
2013-3-8,80,66,57,66,59,50,100,83,36,0.00,40.00,8,4,21,0.00
2013-3-9,79,70,63,67,64,62,100,86,58,0.00,40.00,11,6,32,0.19
2013-3-10,68,64,60,68,64,60,100,99,93,0.00,40.00,5,3,14,1.17
2013-3-11,79,66,56,66,62,56,100,88,54,0.00,40.00,9,4,17,0.01
2013-3-12,78,66,58,66,59,52,100,82,48,0.00,40.00,7,4,18,0.00
2013-3-13,73,64,56,63,59,56,100,84,58,0.00,40.00,7,4,17,0.00
2013-3-14,77,65,59,62,60,56,100,84,55,0.00,40.00,5,3,11,0.00
2013-3-15,76,64,56,64,59,54,100,86,52,0.00,40.00,7,4,19,0.07
2013-3-16,72,64,59,62,56,52,100,79,54,0.00,40.00,11,6,25,0.09
2013-3-17,75,63,56,58,56,52,100,79,45,0.00,40.00,6,4,17,0.00
2013-3-18,72,62,53,60,57,53,100,85,58,0.00,40.00,5,3,11,0.01
2013-3-19,78,67,58,64,60,56,100,80,53,0.00,40.00,8,4,25,0.01
2013-3-20,81,68,59,67,62,58,100,82,51,0.00,40.00,9,4,21,0.00
2013-3-21,80,70,59,68,64,59,100,85,59,0.00,40.00,8,5,23,0.00
2013-3-22,75,69,65,70,67,65,100,95,73,0.00,40.00,6,3,18,0.20
2013-3-23,74,67,62,66,64,62,100,90,71,0.00,40.00,10,6,24,0.17
2013-3-24,69,66,61,68,65,61,100,97,90,0.00,40.00,9,4,19,0.22
2013-3-25,78,69,61,70,66,61,100,92,73,0.00,40.00,7,4,15,0.12
2013-3-26,79,68,61,70,65,61,100,90,60,0.00,40.00,7,3,13,0.14
2013-3-27,69,65,61,69,65,61,100,99,97,0.00,40.00,7,3,20,0.96
2013-3-28,76,70,64,65,64,61,100,80,65,0.00,40.00,13,8,27,0.04
2013-3-29,74,67,62,67,64,61,100,91,74,0.00,40.00,12,7,26,0.38
2013-3-30,77,67,60,67,62,58,100,85,58,0.00,40.00,8,5,21,0.01
2013-3-31,71,63,57,58,53,50,92,69,50,0.00,40.00,11,6,25,0.00
2013-4-1,68,62,57,61,57,54,100,85,66,0.00,40.00,9,5,21,0.02
2013-4-2,74,62,55,59,55,50,100,79,50,0.00,40.00,7,4,18,0.01
2013-4-3,73,64,54,64,58,54,100,85,62,0.00,40.00,10,5,22,0.00
2013-4-4,81,69,62,64,62,59,97,81,49,0.00,40.00,7,5,17,0.00
2013-4-5,78,69,62,67,63,60,99,82,58,0.00,40.00,12,6,22,0.00
2013-4-6,79,72,66,70,67,65,100,87,68,0.00,40.00,12,7,23,0.04
2013-4-7,80,72,65,70,66,65,100,85,64,0.00,40.00,13,6,25,0.01
2013-4-8,78,71,66,67,64,62,100,81,58,0.00,40.00,10,5,19,0.01
2013-4-9,79,70,64,67,64,60,100,81,59,0.00,40.00,11,7,25,0.04
2013-4-10,78,71,63,69,64,61,100,80,59,0.00,40.00,11,8,28,0.47
2013-4-11,83,72,64,69,66,64,100,83,52,0.00,40.00,7,4,18,0.01
2013-4-12,81,70,63,69,66,63,100,89,65,0.00,40.00,8,4,20,0.01
2013-4-13,77,69,66,71,68,66,100,94,69,0.00,40.00,11,4,26,0.03
2013-4-14,75,69,65,70,68,65,100,97,78,0.00,40.00,10,5,25,0.86
2013-4-15,74,68,64,72,68,64,100,98,84,0.00,40.00,7,3,16,0.43
2013-4-16,84,71,60,72,66,60,100,87,60,0.00,40.00,8,4,18,0.02
2013-4-17,78,70,64,70,66,63,100,89,69,0.00,40.00,12,4,23,0.12
2013-4-18,77,69,65,70,66,63,100,92,74,0.00,40.00,9,6,26,0.25
2013-4-19,74,68,64,71,67,64,100,97,86,0.00,40.00,12,6,30,0.54
2013-4-20,82,71,63,70,67,63,100,89,59,0.00,40.00,6,3,16,0.16
2013-4-21,79,70,64,71,67,64,100,91,66,0.00,40.00,7,4,20,0.01
2013-4-22,78,70,65,72,69,65,100,96,76,0.00,40.00,8,4,22,0.79
2013-4-23,78,71,66,73,69,66,100,95,66,0.00,40.00,7,5,23,0.48
2013-4-24,81,70,66,73,68,65,100,92,63,0.00,40.00,7,3,16,1.82
2013-4-25,79,71,66,69,65,63,100,83,64,0.00,40.00,10,5,24,0.25
2013-4-26,78,71,66,65,64,61,95,78,60,0.00,40.00,12,6,28,0.00
2013-4-27,82,71,62,67,64,61,100,81,50,0.00,40.00,9,4,22,0.00
2013-4-28,82,72,63,71,66,63,100,85,59,0.00,40.00,8,4,20,0.00
2013-4-29,80,72,68,72,69,67,100,92,68,0.00,40.00,11,6,25,0.09
2013-4-30,82,71,64,74,68,64,100,92,63,0.00,40.00,7,3,37,1.09
2013-5-1,80,72,64,71,66,62,100,85,59,0.00,40.00,9,4,24,0.02
2013-5-2,80,71,65,72,67,63,100,89,67,0.00,40.00,12,6,24,0.09
2013-5-3,81,71,62,70,65,61,100,85,51,0.00,40.00,7,4,15,0.01
2013-5-4,80,69,63,71,66,63,100,94,63,0.00,40.00,8,3,16,1.27
2013-5-5,71,68,65,71,68,65,100,100,98,0.00,40.00,7,4,22,0.58
2013-5-6,81,70,60,68,63,60,100,82,53,0.00,40.00,8,4,18,0.47
2013-5-7,78,70,60,67,64,60,100,84,64,0.00,40.00,8,4,16,0.00
2013-5-8,81,69,59,65,63,59,100,82,53,0.00,40.00,6,4,14,0.00
2013-5-9,81,71,62,68,66,62,100,85,60,0.00,40.00,6,4,15,0.00
2013-5-10,80,72,64,71,67,64,100,86,64,0.00,40.00,7,4,16,0.00
2013-5-11,78,71,66,68,66,64,100,87,66,0.00,40.00,11,6,23,0.01
2013-5-12,75,70,66,70,67,64,100,92,80,0.00,40.00,12,6,27,0.01
2013-5-13,77,71,67,72,68,66,100,92,78,0.00,40.00,11,7,27,0.17
2013-5-14,80,73,69,70,68,66,100,83,69,0.00,40.00,11,6,28,0.01
2013-5-15,78,72,67,70,67,64,100,85,68,0.00,40.00,9,5,20,0.49
2013-5-16,78,71,67,69,55,-100,100,85,64,0.00,40.00,8,-863,17,0.83
2013-5-17,76,70,66,68,60,-100,99,86,66,0.00,40.00,0,-999,0,0.37
2013-5-18,81,70,64,69,66,63,100,87,63,0.00,40.00,0,-999,0,0.22
2013-5-19,80,70,62,67,65,62,100,85,63,0.00,40.00,0,-999,0,0.01
2013-5-20,80,70,61,64,61,54,99,76,48,0.00,40.00,0,-999,0,0.00
2013-5-21,80,68,59,66,62,59,100,82,57,0.00,40.00,0,-999,0,0.00
2013-5-22,84,70,61,71,66,61,100,90,60,0.00,40.00,0,-999,0,1.23
2013-5-23,85,73,62,71,67,62,100,82,55,0.00,40.00,0,-999,0,1.23
2013-5-24,80,73,67,70,67,64,100,82,65,0.00,40.00,0,-999,0,0.00
2013-5-25,74,70,67,71,68,64,99,92,84,0.00,40.00,0,-999,0,1.03
2013-5-26,79,72,65,68,66,62,97,81,65,0.00,40.00,0,-999,0,0.16
2013-5-27,78,72,66,67,66,64,97,83,65,0.00,40.00,0,-999,0,0.01
2013-5-28,76,69,64,73,68,64,100,97,83,0.00,40.00,0,-999,0,3.39
2013-5-29,82,71,65,74,69,65,100,94,62,0.00,40.00,0,-999,0,3.57
2013-5-30,81,74,64,72,69,64,100,87,67,0.00,40.00,0,-999,0,0.06
2013-5-31,80,73,67,73,70,67,100,92,77,0.00,40.00,0,-999,0,0.02
2013-6-1,81,72,68,74,69,65,100,91,67,0.00,40.00,0,-999,0,0.17
2013-6-2,79,73,69,74,70,65,100,92,75,0.00,40.00,0,-999,0,0.23
2013-6-3,78,72,69,68,65,62,86,78,69,0.00,40.00,0,-999,0,0.01
2013-6-4,79,73,68,68,66,62,88,79,64,0.00,40.00,0,-999,0,0.01
2013-6-5,79,72,68,69,65,61,92,80,65,0.00,40.00,0,-999,0,0.00
2013-6-6,77,72,68,67,64,62,90,77,65,0.00,40.00,0,-999,0,0.00
2013-6-7,72,68,66,68,66,63,100,91,80,0.00,40.00,0,-999,0,0.58
2013-6-8,78,71,66,68,66,63,100,86,67,0.00,40.00,0,-999,0,0.61
2013-6-9,78,71,66,70,67,64,100,88,65,0.00,40.00,0,-999,0,0.14
2013-6-10,78,72,66,69,66,65,100,83,69,0.00,40.00,0,-999,0,0.03
2013-6-11,79,72,68,70,67,66,96,86,69,0.00,40.00,0,-999,0,0.01
2013-6-12,79,71,68,72,68,66,100,90,64,0.00,40.00,0,-999,0,0.43
2013-6-13,72,70,67,72,69,67,100,97,89,0.00,40.00,0,-999,0,2.70
2013-6-14,79,71,66,70,68,65,100,89,69,0.00,40.00,0,-999,0,1.47
2013-6-15,77,70,66,70,68,65,100,93,74,0.00,40.00,0,-999,0,0.27
2013-6-16,77,70,66,72,68,66,100,92,72,0.00,40.00,0,-999,0,0.37
2013-6-17,74,69,66,70,68,66,100,97,87,0.00,40.00,0,-999,0,0.53
2013-6-18,78,71,67,71,68,66,100,92,73,0.00,40.00,0,-999,0,0.93
2013-6-19,79,72,65,72,67,64,100,86,71,0.00,40.00,0,-999,0,0.48